Colonia do Gurgueia, Brazil
Current Conditions -  °F | °C
As of 1:00 AM on Saturday 20 Dec 2014 (Local Time) from SBTE Reporting Station
Scattered Clouds Scattered Clouds  
Wind Chill: 79°   Ceiling: Unl
Heat Index: 82°   Visibility: 6mi
Dew Point: 73°   Wind: 1mph
Humidity: 83%   Direction: 330°NNW
Pressure: 29.83"   Gusts: NA
Location:  8.18°S, 43.79°W
Report Text: SBTE 200400Z 33001KT 9999 SCT030 26/23 Q1010
Loading
Personal Weather Stations






























Interactive Weather Map New forecast layout! Learn more

10-Day Weather Forecast

Advertisements
Track Severe Weather on mobile